createdAt,value
2018-04-24T00:00:06.521Z,11.50
2018-04-24T00:02:34.143Z,11.50
2018-04-24T00:05:02.122Z,11.50
2018-04-24T00:07:35.755Z,11.50
2018-04-24T00:10:03.385Z,11.50
2018-04-24T00:12:31.151Z,11.40
2018-04-24T00:14:59.625Z,11.40
2018-04-24T00:17:27.286Z,11.30
2018-04-24T00:19:54.847Z,11.30
2018-04-24T00:22:22.931Z,11.30
2018-04-24T00:24:50.786Z,11.30
2018-04-24T00:27:18.757Z,11.30
2018-04-24T00:29:46.729Z,11.20
2018-04-24T00:32:14.223Z,11.20
2018-04-24T00:34:41.854Z,11.10
2018-04-24T00:37:09.509Z,11.10
2018-04-24T00:39:37.175Z,11.00
2018-04-24T00:42:05.348Z,11.00
2018-04-24T00:44:32.832Z,11.00
2018-04-24T00:47:00.370Z,11.00
2018-04-24T00:49:27.855Z,11.00
2018-04-24T00:51:55.482Z,10.90
2018-04-24T00:54:23.451Z,10.90
2018-04-24T00:56:51.357Z,10.90
2018-04-24T00:59:18.991Z,10.90
2018-04-24T01:01:46.646Z,10.80
2018-04-24T01:04:14.613Z,10.80
2018-04-24T01:06:42.250Z,10.70
2018-04-24T01:09:09.948Z,10.70
2018-04-24T01:11:37.608Z,10.70
2018-04-24T01:14:05.292Z,10.70
2018-04-24T01:16:32.939Z,10.70
2018-04-24T01:19:00.794Z,10.70
2018-04-24T01:21:28.865Z,10.70
2018-04-24T01:23:56.531Z,10.70
2018-04-24T01:26:24.425Z,10.80
2018-04-24T01:28:52.005Z,10.80
2018-04-24T01:31:19.516Z,10.70
2018-04-24T01:33:47.487Z,10.70
2018-04-24T01:36:15.461Z,10.70
2018-04-24T01:38:43.219Z,10.70
2018-04-24T01:41:11.193Z,10.70
2018-04-24T01:43:39.265Z,10.70
2018-04-24T01:46:07.338Z,10.70
2018-04-24T01:48:35.082Z,10.70
2018-04-24T01:51:02.771Z,10.70
2018-04-24T01:56:04.692Z,10.70
2018-04-24T01:58:34.247Z,10.70
2018-04-24T02:01:02.218Z,10.70
2018-04-24T02:03:30.205Z,10.70
2018-04-24T02:05:57.848Z,10.60
2018-04-24T02:08:25.918Z,10.60
2018-04-24T02:10:54.205Z,10.60
2018-04-24T02:13:22.065Z,10.60
2018-04-24T02:15:50.443Z,10.60
2018-04-24T02:18:18.515Z,10.60
2018-04-24T02:20:47.533Z,10.60
2018-04-24T02:23:15.327Z,10.60
2018-04-24T02:25:42.891Z,10.50
2018-04-24T02:28:10.393Z,10.50
2018-04-24T02:30:38.057Z,10.50
2018-04-24T02:33:06.033Z,10.40
2018-04-24T02:35:33.508Z,10.50
2018-04-24T02:38:01.147Z,10.40
2018-04-24T02:40:29.021Z,10.40
2018-04-24T02:42:56.535Z,10.40
2018-04-24T02:45:24.241Z,10.40
2018-04-24T02:47:52.208Z,10.40
2018-04-24T02:50:20.200Z,10.40
2018-04-24T02:52:47.740Z,10.40
2018-04-24T02:55:15.719Z,10.40
2018-04-24T02:57:43.380Z,10.40
2018-04-24T03:00:11.032Z,10.50
2018-04-24T03:02:38.927Z,10.50
2018-04-24T03:05:07.236Z,10.50
2018-04-24T03:07:34.834Z,10.50
2018-04-24T03:10:02.858Z,10.50
2018-04-24T03:12:30.467Z,10.60
2018-04-24T03:14:58.356Z,10.60
2018-04-24T03:17:26.757Z,10.60
2018-04-24T03:19:54.281Z,10.60
2018-04-24T03:22:25.841Z,10.60
2018-04-24T03:24:53.418Z,10.60
2018-04-24T03:27:20.949Z,10.50
2018-04-24T03:29:48.747Z,10.60
2018-04-24T03:32:16.279Z,10.60
2018-04-24T03:34:43.762Z,10.60
2018-04-24T03:37:11.393Z,10.60
2018-04-24T03:39:40.285Z,10.60
2018-04-24T03:42:08.252Z,10.60
2018-04-24T03:44:36.252Z,10.70
2018-04-24T03:47:04.011Z,10.70
2018-04-24T03:49:31.505Z,10.70
2018-04-24T03:51:59.103Z,10.70
2018-04-24T03:54:27.096Z,10.70
2018-04-24T03:56:54.637Z,10.70
2018-04-24T03:59:22.709Z,10.70
2018-04-24T04:01:50.987Z,10.70
2018-04-24T04:04:18.957Z,10.70
2018-04-24T04:06:46.623Z,10.70
2018-04-24T04:09:14.588Z,10.70
2018-04-24T04:11:42.559Z,10.70
2018-04-24T04:14:10.936Z,10.70
2018-04-24T04:16:38.614Z,10.80
2018-04-24T04:19:18.048Z,10.80
2018-04-24T04:21:57.895Z,10.70
2018-04-24T04:27:20.501Z,10.70
2018-04-24T04:29:48.274Z,10.80
2018-04-24T04:32:15.702Z,10.80
2018-04-24T04:34:43.162Z,10.80
2018-04-24T04:37:10.716Z,10.80
2018-04-24T04:39:38.249Z,10.80
2018-04-24T04:42:06.439Z,10.80
2018-04-24T04:44:34.310Z,10.90
2018-04-24T04:47:01.868Z,11.00
2018-04-24T04:49:29.310Z,10.90
2018-04-24T04:51:57.383Z,10.90
2018-04-24T04:54:25.360Z,10.90
2018-04-24T04:56:53.373Z,10.90
2018-04-24T04:59:20.881Z,10.90
2018-04-24T05:01:48.804Z,10.90
2018-04-24T05:04:16.515Z,10.90
2018-04-24T05:06:44.176Z,10.90
2018-04-24T05:09:11.698Z,10.90
2018-04-24T05:11:39.303Z,10.90
2018-04-24T05:14:08.189Z,11.00
2018-04-24T05:16:35.905Z,11.00
2018-04-24T05:19:03.409Z,11.00
2018-04-24T05:21:31.381Z,11.00
2018-04-24T05:23:58.849Z,11.00
2018-04-24T05:26:30.425Z,11.00
2018-04-24T05:28:57.953Z,11.00
2018-04-24T05:31:25.922Z,11.00
2018-04-24T05:33:53.943Z,11.00
2018-04-24T05:36:27.667Z,11.00
2018-04-24T05:39:18.839Z,11.00
2018-04-24T05:41:46.787Z,11.00
2018-04-24T05:44:14.952Z,11.00
2018-04-24T05:46:43.027Z,11.00
2018-04-24T05:49:10.503Z,11.00
2018-04-24T05:51:38.043Z,11.00
2018-04-24T05:54:05.937Z,11.10
2018-04-24T05:56:33.591Z,11.10
2018-04-24T05:59:01.048Z,11.10
2018-04-24T06:01:29.021Z,11.10
2018-04-24T06:03:56.676Z,11.20
2018-04-24T06:06:24.223Z,11.10
2018-04-24T06:08:52.120Z,11.10
2018-04-24T06:11:19.757Z,11.20
2018-04-24T06:13:47.311Z,11.20
2018-04-24T06:16:14.806Z,11.20
2018-04-24T06:18:42.654Z,11.10
2018-04-24T06:21:10.305Z,11.10
2018-04-24T06:23:37.973Z,11.10
2018-04-24T06:26:05.624Z,11.10
2018-04-24T06:28:42.311Z,11.10
2018-04-24T06:31:10.279Z,11.10
2018-04-24T06:33:37.768Z,11.20
2018-04-24T06:36:05.499Z,11.20
2018-04-24T06:38:33.120Z,11.30
2018-04-24T06:41:00.643Z,11.30
2018-04-24T06:43:28.203Z,11.30
2018-04-24T06:45:55.833Z,11.30
2018-04-24T06:48:23.633Z,11.30
2018-04-24T06:50:51.258Z,11.30
2018-04-24T06:53:19.240Z,11.40
2018-04-24T06:55:46.891Z,11.40
2018-04-24T06:58:14.671Z,11.40
2018-04-24T07:00:42.431Z,11.40
2018-04-24T07:03:10.505Z,11.50
2018-04-24T07:05:38.467Z,11.50
2018-04-24T07:08:06.973Z,11.50
2018-04-24T07:10:34.505Z,11.50
2018-04-24T07:13:02.166Z,11.60
2018-04-24T07:15:30.137Z,11.60
2018-04-24T07:17:57.798Z,11.60
2018-04-24T07:20:25.733Z,11.60
2018-04-24T07:22:53.327Z,11.70
2018-04-24T07:25:20.941Z,11.70
2018-04-24T07:27:48.857Z,11.80
2018-04-24T07:30:16.346Z,11.80
2018-04-24T07:32:43.874Z,11.80
2018-04-24T07:35:11.768Z,11.90
2018-04-24T07:37:39.228Z,11.90
2018-04-24T07:40:06.762Z,11.90
2018-04-24T07:42:34.753Z,11.90
2018-04-24T07:45:02.211Z,11.90
2018-04-24T07:47:29.748Z,11.90
2018-04-24T07:49:57.724Z,11.90
2018-04-24T07:52:25.177Z,11.90
2018-04-24T07:54:53.351Z,12.00
2018-04-24T07:57:21.323Z,11.90
2018-04-24T07:59:49.290Z,11.90
2018-04-24T08:02:17.263Z,12.00
2018-04-24T08:04:45.133Z,12.00
2018-04-24T08:07:12.769Z,12.00
2018-04-24T08:09:40.301Z,12.00
2018-04-24T08:12:08.017Z,12.00
2018-04-24T08:14:35.875Z,12.00
2018-04-24T08:17:03.849Z,12.00
2018-04-24T08:19:31.712Z,12.00
2018-04-24T08:21:59.300Z,12.10
2018-04-24T08:24:26.843Z,12.10
2018-04-24T08:26:55.007Z,12.10
2018-04-24T08:29:22.901Z,12.10
2018-04-24T08:31:50.536Z,12.10
2018-04-24T08:34:18.711Z,12.20
2018-04-24T08:36:46.791Z,12.30
2018-04-24T08:39:14.965Z,12.30
2018-04-24T08:41:42.928Z,12.30
2018-04-24T08:44:11.100Z,12.30
2018-04-24T08:46:38.972Z,12.20
2018-04-24T08:49:06.943Z,12.30
2018-04-24T08:51:34.498Z,12.30
2018-04-24T08:54:02.469Z,12.30
2018-04-24T08:56:30.276Z,12.30
2018-04-24T08:58:57.898Z,12.40
2018-04-24T09:01:25.356Z,12.40
2018-04-24T09:03:53.323Z,12.40
2018-04-24T09:06:21.191Z,12.50
2018-04-24T09:08:49.379Z,12.50
2018-04-24T09:11:16.931Z,12.50
2018-04-24T09:13:44.895Z,12.50
2018-04-24T09:16:13.072Z,12.60
2018-04-24T09:18:40.630Z,12.60
2018-04-24T09:21:08.199Z,12.60
2018-04-24T09:23:36.268Z,12.60
2018-04-24T09:26:04.537Z,12.60
2018-04-24T09:28:32.436Z,12.60
2018-04-24T09:30:59.964Z,12.60
2018-04-24T09:33:27.906Z,12.60
2018-04-24T09:35:55.293Z,12.60
2018-04-24T09:38:23.256Z,12.60
2018-04-24T09:40:51.128Z,12.60
2018-04-24T09:43:19.103Z,12.60
2018-04-24T09:45:47.075Z,12.60
2018-04-24T09:48:15.035Z,12.60
2018-04-24T09:50:42.902Z,12.60
2018-04-24T09:53:10.871Z,12.60
2018-04-24T09:55:38.739Z,12.70
2018-04-24T09:58:06.809Z,12.70
2018-04-24T10:00:36.652Z,12.70
2018-04-24T10:03:04.285Z,12.70
2018-04-24T10:05:32.152Z,12.80
2018-04-24T10:08:00.051Z,12.80
2018-04-24T10:10:28.193Z,12.80
2018-04-24T10:12:56.163Z,12.80
2018-04-24T10:15:24.238Z,12.90
2018-04-24T10:17:52.206Z,12.90
2018-04-24T10:20:20.176Z,12.90
2018-04-24T10:22:47.940Z,12.90
2018-04-24T10:25:15.760Z,13.00
2018-04-24T10:27:43.242Z,13.00
2018-04-24T10:30:10.943Z,13.00
2018-04-24T10:32:38.498Z,13.00
2018-04-24T10:35:06.251Z,13.10
2018-04-24T10:37:34.255Z,13.00
2018-04-24T10:40:01.783Z,13.00
2018-04-24T10:42:29.447Z,13.00
2018-04-24T10:44:57.339Z,13.10
2018-04-24T10:47:24.879Z,13.10
2018-04-24T10:49:52.770Z,13.10
2018-04-24T10:52:20.310Z,13.20
2018-04-24T10:54:48.168Z,13.10
2018-04-24T10:57:16.061Z,13.20
2018-04-24T10:59:43.594Z,13.20
2018-04-24T11:02:11.170Z,13.20
2018-04-24T11:04:38.717Z,13.20
2018-04-24T11:07:06.697Z,13.20
2018-04-24T11:09:34.349Z,13.20
2018-04-24T11:12:02.324Z,13.20
2018-04-24T11:14:30.214Z,13.30
2018-04-24T11:16:57.745Z,13.30
2018-04-24T11:19:25.611Z,13.30
2018-04-24T11:21:53.485Z,13.20
2018-04-24T11:24:21.449Z,13.30
2018-04-24T11:26:49.173Z,13.30
2018-04-24T11:29:16.671Z,13.20
2018-04-24T11:31:44.540Z,13.20
2018-04-24T11:34:12.514Z,13.20
2018-04-24T11:36:40.026Z,13.20
2018-04-24T11:39:07.729Z,13.10
2018-04-24T11:41:38.471Z,13.10
2018-04-24T11:44:06.145Z,13.00
2018-04-24T11:46:33.804Z,13.10
2018-04-24T11:49:01.246Z,13.10
2018-04-24T11:51:29.215Z,13.10
2018-04-24T11:53:57.288Z,13.20
2018-04-24T11:56:28.659Z,13.30
2018-04-24T11:58:57.016Z,13.30
2018-04-24T12:01:24.681Z,13.30
2018-04-24T12:03:52.489Z,13.40
2018-04-24T12:06:20.430Z,13.40
2018-04-24T12:08:48.279Z,13.40
2018-04-24T12:11:15.877Z,13.40
2018-04-24T12:13:43.403Z,13.50
2018-04-24T12:16:11.369Z,13.50
2018-04-24T12:18:39.341Z,13.50
2018-04-24T12:21:07.219Z,13.50
2018-04-24T12:23:35.791Z,13.60
2018-04-24T12:26:03.479Z,13.60
2018-04-24T12:28:41.261Z,13.60
2018-04-24T12:31:09.231Z,13.70
2018-04-24T12:33:37.202Z,13.70
2018-04-24T12:36:05.166Z,13.80
2018-04-24T12:38:32.826Z,13.70
2018-04-24T12:41:00.794Z,13.80
2018-04-24T12:43:28.767Z,13.90
2018-04-24T12:45:56.736Z,13.90
2018-04-24T12:48:24.642Z,13.90
2018-04-24T12:50:52.163Z,14.00
2018-04-24T12:53:20.134Z,14.00
2018-04-24T12:55:48.408Z,14.10
2018-04-24T12:58:15.969Z,14.10
2018-04-24T13:00:44.006Z,14.10
2018-04-24T13:03:11.923Z,14.20
2018-04-24T13:05:39.471Z,14.20
2018-04-24T13:08:07.445Z,14.20
2018-04-24T13:10:35.101Z,14.20
2018-04-24T13:13:03.071Z,14.20
2018-04-24T13:15:31.173Z,14.30
2018-04-24T13:17:58.916Z,14.40
2018-04-24T13:20:28.516Z,14.50
2018-04-24T13:22:56.809Z,14.60
2018-04-24T13:25:24.463Z,14.60
2018-04-24T13:27:52.126Z,14.60
2018-04-24T13:30:19.678Z,14.60
2018-04-24T13:32:47.648Z,14.70
2018-04-24T13:35:15.619Z,14.60
2018-04-24T13:37:43.175Z,14.60
2018-04-24T13:40:11.457Z,14.50
2018-04-24T13:42:39.013Z,14.50
2018-04-24T13:45:06.992Z,14.50
2018-04-24T13:47:34.647Z,14.50
2018-04-24T13:50:02.615Z,14.50
2018-04-24T13:52:30.036Z,14.50
2018-04-24T13:54:57.745Z,14.40
2018-04-24T13:57:25.298Z,14.30
2018-04-24T13:59:53.265Z,14.30
2018-04-24T14:02:20.956Z,14.30
2018-04-24T14:04:48.598Z,14.30
2018-04-24T14:07:16.150Z,14.30
2018-04-24T14:09:43.888Z,14.30
2018-04-24T14:12:11.448Z,14.30
2018-04-24T14:14:39.343Z,14.40
2018-04-24T14:17:07.313Z,14.40
2018-04-24T14:19:34.875Z,14.40
2018-04-24T14:22:02.838Z,14.50
2018-04-24T14:24:30.821Z,14.50
2018-04-24T14:26:58.841Z,14.50
2018-04-24T14:29:26.448Z,14.50
2018-04-24T14:31:54.211Z,14.60
2018-04-24T14:34:21.869Z,14.70
2018-04-24T14:36:49.954Z,15.10
2018-04-24T14:39:17.612Z,15.40
2018-04-24T14:41:45.269Z,15.60
2018-04-24T14:44:12.937Z,15.80
2018-04-24T14:46:40.427Z,15.90
2018-04-24T14:49:08.006Z,16.10
2018-04-24T14:51:35.519Z,16.30
2018-04-24T14:54:03.169Z,16.50
2018-04-24T14:56:31.063Z,16.60
2018-04-24T14:58:58.460Z,16.50
2018-04-24T15:01:26.062Z,16.50
2018-04-24T15:03:53.977Z,16.60
2018-04-24T15:06:21.688Z,16.60
2018-04-24T15:08:49.470Z,16.80
2018-04-24T15:11:17.014Z,16.90
2018-04-24T15:13:44.981Z,16.90
2018-04-24T15:16:12.793Z,16.90
2018-04-24T15:18:40.508Z,16.90
2018-04-24T15:21:09.604Z,16.80
2018-04-24T15:23:37.450Z,16.80
2018-04-24T15:26:05.031Z,16.80
2018-04-24T15:28:32.902Z,16.70
2018-04-24T15:31:00.872Z,16.70
2018-04-24T15:33:28.427Z,16.60
2018-04-24T15:35:56.812Z,16.60
2018-04-24T15:38:24.367Z,16.60
2018-04-24T15:40:52.555Z,16.60
2018-04-24T15:43:20.201Z,16.60
2018-04-24T15:45:48.174Z,16.60
2018-04-24T15:48:16.244Z,16.60
2018-04-24T15:50:44.315Z,16.70
2018-04-24T15:53:13.420Z,16.80
2018-04-24T15:55:40.900Z,16.70
2018-04-24T15:58:08.430Z,16.70
2018-04-24T16:00:36.446Z,16.70
2018-04-24T16:03:04.069Z,16.60
2018-04-24T16:05:31.939Z,16.60
2018-04-24T16:07:59.590Z,16.60
2018-04-24T16:10:27.458Z,16.50
2018-04-24T16:12:56.252Z,16.40
2018-04-24T16:15:24.114Z,16.30
2018-04-24T16:17:51.880Z,16.30
2018-04-24T16:20:19.448Z,16.20
2018-04-24T16:22:46.914Z,16.10
2018-04-24T16:25:14.458Z,16.10
2018-04-24T16:27:42.426Z,16.00
2018-04-24T16:30:10.221Z,16.00
2018-04-24T16:32:37.865Z,15.90
2018-04-24T16:35:05.418Z,15.80
2018-04-24T16:37:32.983Z,15.80
2018-04-24T16:40:00.839Z,15.80
2018-04-24T16:42:28.855Z,15.70
2018-04-24T16:44:56.369Z,15.70
2018-04-24T16:47:24.341Z,15.60
2018-04-24T16:49:51.820Z,15.60
2018-04-24T16:52:19.255Z,15.50
2018-04-24T16:54:47.233Z,15.50
2018-04-24T16:57:15.203Z,15.40
2018-04-24T16:59:43.268Z,15.40
2018-04-24T17:02:11.349Z,15.40
2018-04-24T17:04:38.930Z,15.40
2018-04-24T17:07:06.515Z,15.30
2018-04-24T17:09:34.020Z,15.30
2018-04-24T17:12:01.476Z,15.20
2018-04-24T17:14:29.445Z,15.20
2018-04-24T17:17:01.616Z,15.10
2018-04-24T17:19:29.481Z,15.10
2018-04-24T17:21:57.764Z,15.00
2018-04-24T17:24:25.329Z,15.00
2018-04-24T17:26:52.876Z,14.90
2018-04-24T17:29:20.764Z,14.80
2018-04-24T17:31:48.406Z,14.70
2018-04-24T17:34:16.377Z,14.70
2018-04-24T17:36:43.936Z,14.70
2018-04-24T17:39:11.910Z,14.70
2018-04-24T17:41:39.877Z,14.70
2018-04-24T17:44:07.956Z,14.70
2018-04-24T17:46:41.959Z,14.70
2018-04-24T17:49:09.623Z,14.70
2018-04-24T17:51:37.416Z,14.70
2018-04-24T17:54:04.948Z,14.70
2018-04-24T17:56:32.921Z,14.60
2018-04-24T17:59:00.897Z,14.60
2018-04-24T18:01:28.856Z,14.60
2018-04-24T18:04:01.418Z,14.50
2018-04-24T18:06:46.200Z,14.50
2018-04-24T18:09:14.380Z,14.40
2018-04-24T18:11:48.078Z,14.30
2018-04-24T18:14:16.261Z,14.30
2018-04-24T18:16:45.781Z,14.30
2018-04-24T18:19:13.316Z,14.30
2018-04-24T18:21:48.674Z,14.30
2018-04-24T18:24:16.220Z,14.30
2018-04-24T18:26:47.675Z,14.20
2018-04-24T18:29:16.081Z,14.20
2018-04-24T18:31:45.834Z,14.20
2018-04-24T18:34:13.739Z,14.20
2018-04-24T18:36:54.509Z,14.10
2018-04-24T18:39:22.580Z,14.10
2018-04-24T18:41:50.136Z,14.10
2018-04-24T18:44:18.102Z,14.10
2018-04-24T18:46:46.079Z,14.00
2018-04-24T18:49:17.120Z,14.00
2018-04-24T18:51:45.089Z,14.00
2018-04-24T18:54:24.212Z,14.00
2018-04-24T18:56:52.386Z,14.00
2018-04-24T18:59:20.389Z,13.90
2018-04-24T19:01:48.540Z,13.90
2018-04-24T19:04:20.603Z,13.90
2018-04-24T19:06:56.141Z,13.80
2018-04-24T19:09:24.318Z,13.80
2018-04-24T19:11:52.236Z,13.80
2018-04-24T19:14:25.370Z,13.80
2018-04-24T19:16:56.933Z,13.80
2018-04-24T19:19:31.559Z,13.80
2018-04-24T19:21:59.626Z,13.70
2018-04-24T19:24:33.436Z,13.70
2018-04-24T19:27:05.601Z,13.70
2018-04-24T19:29:33.673Z,13.70
2018-04-24T19:32:07.204Z,13.60
2018-04-24T19:34:34.836Z,13.60
2018-04-24T19:37:02.811Z,13.60
2018-04-24T19:39:36.417Z,13.50
2018-04-24T19:42:14.750Z,13.50
2018-04-24T19:44:42.588Z,13.50
2018-04-24T19:47:10.157Z,13.50
2018-04-24T19:49:43.962Z,13.40
2018-04-24T19:52:12.953Z,13.40
2018-04-24T19:54:50.960Z,13.40
2018-04-24T19:57:18.931Z,13.40
2018-04-24T19:59:46.901Z,13.40
2018-04-24T20:02:14.477Z,13.40
2018-04-24T20:04:41.929Z,13.30
2018-04-24T20:07:09.784Z,13.20
2018-04-24T20:09:37.754Z,13.20
2018-04-24T20:12:05.727Z,13.20
2018-04-24T20:14:33.688Z,13.20
2018-04-24T20:17:23.671Z,13.20
2018-04-24T20:19:51.645Z,13.20
2018-04-24T20:22:19.614Z,13.10
2018-04-24T20:24:47.787Z,13.10
2018-04-24T20:27:15.753Z,13.00
2018-04-24T20:29:43.831Z,13.00
2018-04-24T20:32:11.797Z,13.10
2018-04-24T20:34:39.276Z,13.00
2018-04-24T20:37:06.813Z,13.00
2018-04-24T20:39:36.728Z,13.00
2018-04-24T20:42:04.701Z,13.00
2018-04-24T20:44:32.667Z,13.00
2018-04-24T20:47:00.944Z,12.90
2018-04-24T20:49:29.128Z,12.90
2018-04-24T20:51:57.115Z,12.80
2018-04-24T20:54:24.749Z,12.70
2018-04-24T20:56:52.723Z,12.80
2018-04-24T20:59:24.579Z,12.80
2018-04-24T21:01:52.550Z,12.80
2018-04-24T21:04:20.523Z,12.80
2018-04-24T21:06:48.391Z,12.80
2018-04-24T21:09:19.845Z,12.70
2018-04-24T21:11:48.555Z,12.70
2018-04-24T21:14:16.115Z,12.70
2018-04-24T21:16:43.852Z,12.70
2018-04-24T21:19:11.740Z,12.70
2018-04-24T21:21:39.281Z,12.70
2018-04-24T21:24:07.171Z,12.70
2018-04-24T21:26:34.603Z,12.60
2018-04-24T21:29:03.616Z,12.60
2018-04-24T21:31:31.079Z,12.60
2018-04-24T21:33:58.716Z,12.60
2018-04-24T21:36:26.583Z,12.60
2018-04-24T21:38:54.655Z,12.60
2018-04-24T21:41:22.666Z,12.60
2018-04-24T21:43:50.340Z,12.50
2018-04-24T21:46:17.847Z,12.50
2018-04-24T21:48:45.825Z,12.50
2018-04-24T21:51:13.376Z,12.50
2018-04-24T21:53:41.354Z,12.50
2018-04-24T21:56:09.068Z,12.40
2018-04-24T21:58:36.672Z,12.40
2018-04-24T22:01:04.576Z,12.40
2018-04-24T22:03:32.303Z,12.40
2018-04-24T22:06:00.276Z,12.40
2018-04-24T22:08:28.251Z,12.40
2018-04-24T22:10:56.526Z,12.40
2018-04-24T22:13:24.521Z,12.30
2018-04-24T22:15:52.278Z,12.30
2018-04-24T22:18:19.918Z,12.30
2018-04-24T22:20:47.979Z,12.30
2018-04-24T22:23:15.653Z,12.30
2018-04-24T22:25:43.539Z,12.30
2018-04-24T22:28:11.191Z,12.30
2018-04-24T22:30:39.214Z,12.30
2018-04-24T22:33:06.743Z,12.20
2018-04-24T22:35:35.973Z,12.20
2018-04-24T22:38:03.542Z,12.20
2018-04-24T22:40:31.053Z,12.20
2018-04-24T22:42:58.596Z,12.20
2018-04-24T22:45:26.558Z,12.20
2018-04-24T22:48:03.129Z,12.10
2018-04-24T22:50:31.102Z,12.10
2018-04-24T22:52:58.660Z,12.10
2018-04-24T22:55:26.631Z,12.10
2018-04-24T22:57:54.448Z,12.10
2018-04-24T23:00:22.019Z,12.00
2018-04-24T23:02:49.997Z,12.00
2018-04-24T23:05:17.586Z,12.10
2018-04-24T23:07:45.557Z,12.10
2018-04-24T23:10:13.021Z,12.00
2018-04-24T23:12:52.451Z,12.00
2018-04-24T23:15:32.425Z,12.00
2018-04-24T23:18:11.738Z,12.00
2018-04-24T23:20:39.202Z,12.00
2018-04-24T23:23:06.757Z,12.00
2018-04-24T23:25:34.733Z,12.10
2018-04-24T23:28:02.677Z,12.10
2018-04-24T23:30:30.367Z,12.10
2018-04-24T23:32:57.841Z,12.10
2018-04-24T23:35:25.375Z,12.00
2018-04-24T23:37:53.346Z,12.00
2018-04-24T23:40:21.375Z,12.10
2018-04-24T23:42:48.985Z,12.10
2018-04-24T23:45:16.766Z,12.10
2018-04-24T23:47:44.200Z,12.10
2018-04-24T23:50:11.872Z,12.10
2018-04-24T23:52:39.423Z,12.10
2018-04-24T23:55:07.096Z,12.10
2018-04-24T23:57:34.749Z,12.10
